createdAt,value
2022-12-26T00:01:22.637Z,3.70
2022-12-26T00:03:51.051Z,4.10
2022-12-26T00:06:22.034Z,3.80
2022-12-26T00:08:50.288Z,3.88
2022-12-26T00:11:20.770Z,4.25
2022-12-26T00:13:49.376Z,4.13
2022-12-26T00:16:19.219Z,4.40
2022-12-26T00:18:48.220Z,4.10
2022-12-26T00:21:17.785Z,4.18
2022-12-26T00:23:47.049Z,3.90
2022-12-26T00:26:18.034Z,3.97
2022-12-26T00:28:48.030Z,3.70
2022-12-26T00:31:19.110Z,4.10
2022-12-26T00:33:47.905Z,3.45
2022-12-26T00:36:18.169Z,3.23
2022-12-26T00:38:47.304Z,3.30
2022-12-26T00:41:17.356Z,2.83
2022-12-26T00:43:47.096Z,3.20
2022-12-26T00:46:15.951Z,2.53
2022-12-26T00:48:44.210Z,2.67
2022-12-26T00:51:12.515Z,2.45
2022-12-26T00:53:41.014Z,2.60
2022-12-26T00:56:10.796Z,2.20
2022-12-26T00:58:40.506Z,2.00
2022-12-26T01:01:13.533Z,2.17
2022-12-26T01:03:42.245Z,2.10
2022-12-26T01:06:10.493Z,1.80
2022-12-26T01:08:38.718Z,1.70
2022-12-26T01:11:08.867Z,1.90
2022-12-26T01:13:37.581Z,1.60
2022-12-26T01:16:07.252Z,1.50
2022-12-26T01:18:37.622Z,1.30
2022-12-26T01:21:07.858Z,1.30
2022-12-26T01:23:36.156Z,1.40
2022-12-26T01:26:15.790Z,1.30
2022-12-26T01:28:48.876Z,1.13
2022-12-26T01:31:17.782Z,1.20
2022-12-26T01:33:48.113Z,1.25
2022-12-26T01:36:16.951Z,1.10
2022-12-26T01:38:45.464Z,1.30
2022-12-26T01:41:20.981Z,1.10
2022-12-26T01:43:58.802Z,1.50
2022-12-26T01:46:34.420Z,1.40
2022-12-26T01:49:20.958Z,1.60
2022-12-26T01:51:54.148Z,1.38
2022-12-26T01:54:39.092Z,1.40
2022-12-26T01:57:14.279Z,1.70
2022-12-26T01:59:43.348Z,1.90
2022-12-26T02:02:12.376Z,2.20
2022-12-26T02:05:02.841Z,1.90
2022-12-26T02:07:32.880Z,2.22
2022-12-26T02:10:01.330Z,2.20
2022-12-26T02:12:35.551Z,2.40
2022-12-26T02:15:10.208Z,2.10
2022-12-26T02:17:39.006Z,2.60
2022-12-26T02:20:18.270Z,2.42
2022-12-26T02:23:27.755Z,2.33
2022-12-26T02:26:33.114Z,2.92
2022-12-26T02:29:43.251Z,2.30
2022-12-26T02:32:17.784Z,2.10
2022-12-26T02:34:54.613Z,1.90
2022-12-26T02:37:42.569Z,2.20
2022-12-26T02:40:28.144Z,2.00
2022-12-26T02:43:00.825Z,1.80
2022-12-26T02:45:52.943Z,2.00
2022-12-26T02:48:32.926Z,1.50
2022-12-26T02:51:29.887Z,1.60
2022-12-26T02:54:24.979Z,1.60
2022-12-26T02:57:15.469Z,1.60
2022-12-26T03:00:08.512Z,1.70
2022-12-26T03:02:59.016Z,1.70
2022-12-26T03:05:50.174Z,1.80
2022-12-26T03:08:43.713Z,2.00
2022-12-26T03:11:29.631Z,1.35
2022-12-26T03:14:07.445Z,1.80
2022-12-26T03:16:53.398Z,2.10
2022-12-26T03:19:24.287Z,1.90
2022-12-26T03:21:54.456Z,2.00
2022-12-26T03:24:24.099Z,1.90
2022-12-26T03:26:54.148Z,2.20
2022-12-26T03:29:41.936Z,2.10
2022-12-26T03:32:12.305Z,2.40
2022-12-26T03:34:43.560Z,2.30
2022-12-26T03:37:49.623Z,2.30
2022-12-26T03:40:59.045Z,2.60
2022-12-26T03:44:02.024Z,2.40
2022-12-26T03:46:57.887Z,2.50
2022-12-26T03:49:47.172Z,2.10
2022-12-26T03:52:41.677Z,3.10
2022-12-26T03:55:34.138Z,3.00
2022-12-26T03:58:40.020Z,3.45
2022-12-26T04:01:30.883Z,3.38
2022-12-26T04:04:23.712Z,3.50
2022-12-26T04:07:12.092Z,3.92
2022-12-26T04:10:03.451Z,4.00
2022-12-26T04:12:52.092Z,4.30
2022-12-26T04:15:56.627Z,4.10
2022-12-26T04:18:47.720Z,4.50
2022-12-26T04:21:37.173Z,4.38
2022-12-26T04:24:38.392Z,4.53
2022-12-26T04:27:26.879Z,4.38
2022-12-26T04:30:14.305Z,4.00
2022-12-26T04:33:03.707Z,4.00
2022-12-26T04:35:53.124Z,4.18
2022-12-26T04:38:42.850Z,3.90
2022-12-26T04:41:30.972Z,4.53
2022-12-26T04:44:09.965Z,4.00
2022-12-26T04:46:42.256Z,3.90
2022-12-26T04:49:30.244Z,4.20
2022-12-26T04:52:00.360Z,4.53
2022-12-26T04:54:29.743Z,4.30
2022-12-26T04:56:58.016Z,3.77
2022-12-26T04:59:26.461Z,3.53
2022-12-26T05:02:13.526Z,3.83
2022-12-26T05:04:59.221Z,3.40
2022-12-26T05:07:47.728Z,3.10
2022-12-26T05:10:20.142Z,2.80
2022-12-26T05:12:48.326Z,2.65
2022-12-26T05:15:16.635Z,2.30
2022-12-26T05:18:03.634Z,2.20
2022-12-26T05:20:52.164Z,2.40
2022-12-26T05:23:41.473Z,2.10
2022-12-26T05:26:33.432Z,2.20
2022-12-26T05:29:03.729Z,2.22
2022-12-26T05:31:35.975Z,2.10
2022-12-26T05:34:05.701Z,2.10
2022-12-26T05:36:38.570Z,2.10
2022-12-26T05:39:08.564Z,2.30
2022-12-26T05:41:37.447Z,2.40
2022-12-26T05:44:06.556Z,2.30
2022-12-26T05:46:35.327Z,2.50
2022-12-26T05:49:04.327Z,2.70
2022-12-26T05:51:35.970Z,2.80
2022-12-26T05:54:04.520Z,2.92
2022-12-26T05:56:32.744Z,2.80
2022-12-26T05:59:02.160Z,2.70
2022-12-26T06:01:31.314Z,3.30
2022-12-26T06:04:01.286Z,3.30
2022-12-26T06:06:30.335Z,3.78
2022-12-26T06:08:59.951Z,3.72
2022-12-26T06:11:28.698Z,3.63
2022-12-26T06:13:57.034Z,3.50
2022-12-26T06:16:25.300Z,3.60
2022-12-26T06:18:54.961Z,3.20
2022-12-26T06:21:23.723Z,3.70
2022-12-26T06:23:52.060Z,3.40
2022-12-26T06:26:21.654Z,3.25
2022-12-26T06:28:49.902Z,5.00
2022-12-26T06:31:21.252Z,3.63
2022-12-26T06:33:51.454Z,3.00
2022-12-26T06:36:21.973Z,3.40
2022-12-26T06:38:51.074Z,3.20
2022-12-26T06:41:23.377Z,3.20
2022-12-26T06:43:51.790Z,3.30
2022-12-26T06:46:22.366Z,3.20
2022-12-26T06:48:51.196Z,3.40
2022-12-26T06:51:22.346Z,3.45
2022-12-26T06:53:51.232Z,3.17
2022-12-26T06:56:22.884Z,3.22
2022-12-26T06:58:54.811Z,3.10
2022-12-26T07:01:24.710Z,3.22
2022-12-26T07:03:54.171Z,2.80
2022-12-26T07:06:25.183Z,3.00
2022-12-26T07:08:54.611Z,3.28
2022-12-26T07:11:27.107Z,3.00
2022-12-26T07:13:56.277Z,3.20
2022-12-26T07:16:25.621Z,3.17
2022-12-26T07:18:55.078Z,3.10
2022-12-26T07:21:24.057Z,2.87
2022-12-26T07:23:52.932Z,2.60
2022-12-26T07:26:22.572Z,2.80
2022-12-26T07:28:54.349Z,3.03
2022-12-26T07:31:23.949Z,2.87
2022-12-26T07:33:53.522Z,2.30
2022-12-26T07:36:22.072Z,3.00
2022-12-26T07:38:50.278Z,2.70
2022-12-26T07:41:35.870Z,2.40
2022-12-26T07:44:06.086Z,2.25
2022-12-26T07:46:34.428Z,2.23
2022-12-26T07:49:03.299Z,2.20
2022-12-26T07:51:31.567Z,2.15
2022-12-26T07:54:00.860Z,2.08
2022-12-26T07:56:32.686Z,2.45
2022-12-26T07:59:00.985Z,2.22
2022-12-26T08:01:30.829Z,2.40
2022-12-26T08:03:59.204Z,2.13
2022-12-26T08:06:27.447Z,1.90
2022-12-26T08:08:55.626Z,1.90
2022-12-26T08:11:25.648Z,1.80
2022-12-26T08:13:54.007Z,1.90
2022-12-26T08:16:22.308Z,1.90
2022-12-26T08:18:51.952Z,1.90
2022-12-26T08:21:20.199Z,2.15
2022-12-26T08:23:48.650Z,1.80
2022-12-26T08:26:22.427Z,1.83
2022-12-26T08:28:51.810Z,1.80
2022-12-26T08:31:21.358Z,1.90
2022-12-26T08:33:51.194Z,1.90
2022-12-26T08:36:19.435Z,2.50
2022-12-26T08:38:48.081Z,2.10
2022-12-26T08:41:17.701Z,2.38
2022-12-26T08:46:37.597Z,2.03
2022-12-26T08:49:07.234Z,2.20
2022-12-26T08:51:35.403Z,2.00
2022-12-26T08:54:03.860Z,2.30
2022-12-26T08:56:32.280Z,2.30
2022-12-26T08:59:00.461Z,1.95
2022-12-26T09:01:30.959Z,2.00
2022-12-26T09:04:01.982Z,1.70
2022-12-26T09:06:34.137Z,1.75
2022-12-26T09:09:02.484Z,1.90
2022-12-26T09:11:31.102Z,2.00
2022-12-26T09:14:02.079Z,1.70
2022-12-26T09:16:40.841Z,1.50
2022-12-26T09:19:13.429Z,1.60
2022-12-26T09:21:42.983Z,1.90
2022-12-26T09:24:13.982Z,1.70
2022-12-26T09:26:42.712Z,2.13
2022-12-26T09:29:11.894Z,2.30
2022-12-26T09:31:40.328Z,2.20
2022-12-26T09:34:09.227Z,1.75
2022-12-26T09:36:39.095Z,2.13
2022-12-26T09:39:09.332Z,2.20
2022-12-26T09:41:52.919Z,1.90
2022-12-26T09:44:25.011Z,2.30
2022-12-26T09:47:05.124Z,1.77
2022-12-26T09:49:35.644Z,1.50
2022-12-26T09:52:12.729Z,2.10
2022-12-26T09:54:48.954Z,1.60
2022-12-26T09:57:19.929Z,1.30
2022-12-26T09:59:53.164Z,1.13
2022-12-26T10:02:24.131Z,1.60
2022-12-26T10:04:52.966Z,1.40
2022-12-26T10:07:28.176Z,1.10
2022-12-26T10:10:05.799Z,1.15
2022-12-26T10:12:42.358Z,0.90
2022-12-26T10:15:28.141Z,0.80
2022-12-26T10:18:04.931Z,0.98
2022-12-26T10:20:40.226Z,0.90
2022-12-26T10:23:33.393Z,0.90
2022-12-26T10:26:09.520Z,1.00
2022-12-26T10:28:41.951Z,0.90
2022-12-26T10:31:17.602Z,0.90
2022-12-26T10:33:50.421Z,0.75
2022-12-26T10:36:29.411Z,0.90
2022-12-26T10:39:02.093Z,0.80
2022-12-26T10:41:38.740Z,1.00
2022-12-26T10:44:07.378Z,1.20
2022-12-26T10:46:55.851Z,0.90
2022-12-26T10:49:27.090Z,1.00
2022-12-26T10:51:59.814Z,0.90
2022-12-26T10:54:29.786Z,0.70
2022-12-26T10:57:01.316Z,1.50
2022-12-26T10:59:41.759Z,1.65
2022-12-26T11:02:26.184Z,0.90
2022-12-26T11:05:18.463Z,1.00
2022-12-26T11:07:57.988Z,0.80
2022-12-26T11:10:30.235Z,0.82
2022-12-26T11:13:02.697Z,0.60
2022-12-26T11:15:35.970Z,0.80
2022-12-26T11:18:20.846Z,0.80
2022-12-26T11:20:49.947Z,0.70
2022-12-26T11:23:28.006Z,1.00
2022-12-26T11:25:57.639Z,0.80
2022-12-26T11:28:35.940Z,0.95
2022-12-26T11:31:07.243Z,1.10
2022-12-26T11:33:42.159Z,0.70
2022-12-26T11:36:18.845Z,0.80
2022-12-26T11:38:53.646Z,0.90
2022-12-26T11:41:39.871Z,1.40
2022-12-26T11:44:22.975Z,0.90
2022-12-26T11:46:55.729Z,1.10
2022-12-26T11:49:32.057Z,0.80
2022-12-26T11:52:01.938Z,1.10
2022-12-26T11:54:34.653Z,1.42
2022-12-26T11:57:19.147Z,1.50
2022-12-26T11:59:50.796Z,1.52
2022-12-26T12:02:30.713Z,1.10
2022-12-26T12:05:02.734Z,1.20
2022-12-26T12:07:47.691Z,1.30
2022-12-26T12:10:47.658Z,1.20
2022-12-26T12:13:36.703Z,1.30
2022-12-26T12:16:16.186Z,1.10
2022-12-26T12:18:54.580Z,1.50
2022-12-26T12:21:32.580Z,1.60
2022-12-26T12:24:38.098Z,1.57
2022-12-26T12:27:12.962Z,1.30
2022-12-26T12:29:57.756Z,1.80
2022-12-26T12:32:34.322Z,1.30
2022-12-26T12:35:22.031Z,1.20
2022-12-26T12:38:19.561Z,1.40
2022-12-26T12:40:55.173Z,1.70
2022-12-26T12:43:28.945Z,1.30
2022-12-26T12:46:06.453Z,1.50
2022-12-26T12:48:53.478Z,1.50
2022-12-26T12:51:29.193Z,1.58
2022-12-26T12:54:26.887Z,1.95
2022-12-26T12:57:02.241Z,1.50
2022-12-26T12:59:40.175Z,1.20
2022-12-26T13:02:20.478Z,1.40
2022-12-26T13:04:54.460Z,1.30
2022-12-26T13:07:26.802Z,1.50
2022-12-26T13:09:58.158Z,1.30
2022-12-26T13:12:30.305Z,1.40
2022-12-26T13:15:01.568Z,1.50
2022-12-26T13:17:33.648Z,1.25
2022-12-26T13:20:07.575Z,1.30
2022-12-26T13:22:54.004Z,2.33
2022-12-26T13:25:25.788Z,2.20
2022-12-26T13:28:09.456Z,2.60
2022-12-26T13:30:38.876Z,2.40
2022-12-26T13:33:07.612Z,3.20
2022-12-26T13:35:57.786Z,2.40
2022-12-26T13:38:27.512Z,2.90
2022-12-26T13:41:20.737Z,2.95
2022-12-26T13:44:01.756Z,3.17
2022-12-26T13:46:39.576Z,2.80
2022-12-26T13:49:28.176Z,2.53
2022-12-26T13:52:00.371Z,2.70
2022-12-26T13:54:31.708Z,2.70
2022-12-26T13:57:24.742Z,2.50
2022-12-26T14:00:06.647Z,1.90
2022-12-26T14:03:19.733Z,2.10
2022-12-26T14:06:00.716Z,2.10
2022-12-26T14:08:40.978Z,2.20
2022-12-26T14:11:24.953Z,2.20
2022-12-26T14:14:08.290Z,2.90
2022-12-26T14:16:45.150Z,2.42
2022-12-26T14:19:26.757Z,2.70
2022-12-26T14:22:05.007Z,2.05
2022-12-26T14:24:39.644Z,2.05
2022-12-26T14:27:26.964Z,2.50
2022-12-26T14:30:06.952Z,2.50
2022-12-26T14:32:42.664Z,2.13
2022-12-26T14:35:17.049Z,2.28
2022-12-26T14:37:54.001Z,2.50
2022-12-26T14:40:31.160Z,1.90
2022-12-26T14:43:23.607Z,2.08
2022-12-26T14:45:53.174Z,2.67
2022-12-26T14:48:46.953Z,2.60
2022-12-26T14:51:34.276Z,2.77
2022-12-26T14:54:36.892Z,2.20
2022-12-26T14:57:34.738Z,2.40
2022-12-26T15:00:29.211Z,1.67
2022-12-26T15:03:39.357Z,1.70
2022-12-26T15:06:47.267Z,3.90
2022-12-26T15:09:45.398Z,2.30
2022-12-26T15:12:58.907Z,1.80
2022-12-26T15:15:39.328Z,2.15
2022-12-26T15:18:41.142Z,1.70
2022-12-26T15:21:36.975Z,1.60
2022-12-26T15:25:18.173Z,2.13
2022-12-26T15:28:15.836Z,2.00
2022-12-26T15:31:11.391Z,2.33
2022-12-26T15:33:44.666Z,2.10
2022-12-26T15:36:22.998Z,1.38
2022-12-26T15:38:58.899Z,1.65
2022-12-26T15:41:34.874Z,2.10
2022-12-26T15:44:14.579Z,1.77
2022-12-26T15:46:50.789Z,1.70
2022-12-26T15:49:33.675Z,1.70
2022-12-26T15:52:08.900Z,1.70
2022-12-26T15:55:12.378Z,1.30
2022-12-26T15:57:53.522Z,1.50
2022-12-26T16:00:24.110Z,2.10
2022-12-26T16:03:11.739Z,2.55
2022-12-26T16:05:48.654Z,1.70
2022-12-26T16:08:59.394Z,2.00
2022-12-26T16:11:31.674Z,2.05
2022-12-26T16:14:02.350Z,1.70
2022-12-26T16:16:34.060Z,1.80
2022-12-26T16:19:22.784Z,1.73
2022-12-26T16:22:12.791Z,1.98
2022-12-26T16:24:43.380Z,1.90
2022-12-26T16:27:19.732Z,2.00
2022-12-26T16:29:50.881Z,1.60
2022-12-26T16:32:21.783Z,1.80
2022-12-26T16:34:51.689Z,1.80
2022-12-26T16:37:22.489Z,1.70
2022-12-26T16:40:17.950Z,1.60
2022-12-26T16:42:57.604Z,1.80
2022-12-26T16:45:27.288Z,2.00
2022-12-26T16:47:56.741Z,2.05
2022-12-26T16:50:28.581Z,2.08
2022-12-26T16:53:12.610Z,2.10
2022-12-26T16:55:46.922Z,2.13
2022-12-26T16:58:22.813Z,2.08
2022-12-26T17:01:05.682Z,1.98
2022-12-26T17:03:49.498Z,2.60
2022-12-26T17:06:24.734Z,1.90
2022-12-26T17:08:53.830Z,2.50
2022-12-26T17:11:30.217Z,3.17
2022-12-26T17:13:59.502Z,4.90
2022-12-26T17:16:31.010Z,3.40
2022-12-26T17:19:11.614Z,2.70
2022-12-26T17:21:41.253Z,2.70
2022-12-26T17:24:26.186Z,2.90
2022-12-26T17:27:10.115Z,2.60
2022-12-26T17:29:56.267Z,1.95
2022-12-26T17:32:33.085Z,2.28
2022-12-26T17:35:03.588Z,2.30
2022-12-26T17:37:33.546Z,2.10
2022-12-26T17:40:20.106Z,2.00
2022-12-26T17:42:50.596Z,2.10
2022-12-26T17:45:21.466Z,2.40
2022-12-26T17:47:51.009Z,2.40
2022-12-26T17:50:19.444Z,1.58
2022-12-26T17:52:49.707Z,1.42
2022-12-26T17:55:21.275Z,1.63
2022-12-26T17:57:49.790Z,1.67
2022-12-26T18:00:20.361Z,1.70
2022-12-26T18:02:48.807Z,1.73
2022-12-26T18:05:17.387Z,2.10
2022-12-26T18:07:46.867Z,1.98
2022-12-26T18:10:21.071Z,1.95
2022-12-26T18:12:49.860Z,2.00
2022-12-26T18:15:18.916Z,1.87
2022-12-26T18:17:48.840Z,2.00
2022-12-26T18:20:18.669Z,2.30
2022-12-26T18:22:47.749Z,2.20
2022-12-26T18:25:16.670Z,2.50
2022-12-26T18:27:46.393Z,2.50
2022-12-26T18:30:18.091Z,3.30
2022-12-26T18:32:47.777Z,2.70
2022-12-26T18:35:16.801Z,2.50
2022-12-26T18:37:48.377Z,2.50
2022-12-26T18:40:28.938Z,2.70
2022-12-26T18:42:58.523Z,2.13
2022-12-26T18:45:26.989Z,2.00
2022-12-26T18:47:55.196Z,2.30
2022-12-26T18:50:24.168Z,1.90
2022-12-26T18:52:54.084Z,2.38
2022-12-26T18:55:22.886Z,2.55
2022-12-26T18:57:51.465Z,2.45
2022-12-26T19:00:22.458Z,2.55
2022-12-26T19:02:51.363Z,2.63
2022-12-26T19:05:22.352Z,2.00
2022-12-26T19:07:50.934Z,2.30
2022-12-26T19:10:21.314Z,2.00
2022-12-26T19:12:49.702Z,1.90
2022-12-26T19:15:20.555Z,2.10
2022-12-26T19:17:48.823Z,2.00
2022-12-26T19:20:20.273Z,1.80
2022-12-26T19:22:49.504Z,2.42
2022-12-26T19:25:18.966Z,2.15
2022-12-26T19:27:47.756Z,2.90
2022-12-26T19:30:17.605Z,1.88
2022-12-26T19:32:47.718Z,2.40
2022-12-26T19:35:16.534Z,2.40
2022-12-26T19:37:44.749Z,1.77
2022-12-26T19:40:18.453Z,2.47
2022-12-26T19:42:49.784Z,1.80
2022-12-26T19:45:18.241Z,1.50
2022-12-26T19:47:47.851Z,1.55
2022-12-26T19:50:16.088Z,1.58
2022-12-26T19:52:44.296Z,1.90
2022-12-26T19:55:13.357Z,1.70
2022-12-26T19:57:41.641Z,1.30
2022-12-26T20:00:11.696Z,1.83
2022-12-26T20:02:42.981Z,1.83
2022-12-26T20:05:12.821Z,2.30
2022-12-26T20:07:41.031Z,1.90
2022-12-26T20:10:09.582Z,2.00
2022-12-26T20:12:37.818Z,2.50
2022-12-26T20:15:06.834Z,2.30
2022-12-26T20:17:35.084Z,2.40
2022-12-26T20:20:03.393Z,2.22
2022-12-26T20:22:33.229Z,2.30
2022-12-26T20:25:01.531Z,1.90
2022-12-26T20:27:29.832Z,2.10
2022-12-26T20:29:58.050Z,2.80
2022-12-26T20:32:26.394Z,2.10
2022-12-26T20:34:54.607Z,2.40
2022-12-26T20:37:22.904Z,2.05
2022-12-26T20:39:52.690Z,1.90
2022-12-26T20:42:20.926Z,2.00
2022-12-26T20:44:49.154Z,2.20
2022-12-26T20:47:17.450Z,2.20
2022-12-26T20:49:45.799Z,1.90
2022-12-26T20:52:14.046Z,2.10
2022-12-26T20:54:42.211Z,1.70
2022-12-26T20:57:11.940Z,2.10
2022-12-26T20:59:40.116Z,1.80
2022-12-26T21:02:08.522Z,2.70
2022-12-26T21:04:36.853Z,2.30
2022-12-26T21:07:05.392Z,1.65
2022-12-26T21:09:33.596Z,2.00
2022-12-26T21:12:01.809Z,1.40
2022-12-26T21:14:31.585Z,1.70
2022-12-26T21:17:00.299Z,1.42
2022-12-26T21:19:30.318Z,1.40
2022-12-26T21:21:58.754Z,1.63
2022-12-26T21:24:29.370Z,1.70
2022-12-26T21:26:58.182Z,1.60
2022-12-26T21:29:28.550Z,2.00
2022-12-26T21:31:58.569Z,1.80
2022-12-26T21:34:28.600Z,1.52
2022-12-26T21:37:14.704Z,1.77
2022-12-26T21:39:43.949Z,1.90
2022-12-26T21:42:12.472Z,1.80
2022-12-26T21:44:40.731Z,1.73
2022-12-26T21:47:10.498Z,1.73
2022-12-26T21:49:39.014Z,1.77
2022-12-26T21:52:08.697Z,1.75
2022-12-26T21:54:54.467Z,1.38
2022-12-26T21:57:23.078Z,1.60
2022-12-26T21:59:57.542Z,2.13
2022-12-26T22:02:46.554Z,2.08
2022-12-26T22:05:15.349Z,1.70
2022-12-26T22:07:43.763Z,2.45
2022-12-26T22:10:33.504Z,1.80
2022-12-26T22:13:01.392Z,2.60
2022-12-26T22:15:47.145Z,1.90
2022-12-26T22:18:16.752Z,2.05
2022-12-26T22:20:46.067Z,2.40
2022-12-26T22:23:14.826Z,2.10
2022-12-26T22:25:43.172Z,1.90
2022-12-26T22:28:11.666Z,1.60
2022-12-26T22:30:39.948Z,1.50
2022-12-26T22:33:08.151Z,2.00
2022-12-26T22:35:37.698Z,2.35
2022-12-26T22:38:05.909Z,1.40
2022-12-26T22:40:34.160Z,1.70
2022-12-26T22:43:02.474Z,1.95
2022-12-26T22:45:30.755Z,1.35
2022-12-26T22:47:59.023Z,1.40
2022-12-26T22:50:27.255Z,1.70
2022-12-26T22:52:57.134Z,1.30
2022-12-26T22:55:25.344Z,1.50
2022-12-26T22:57:54.997Z,1.57
2022-12-26T23:00:24.851Z,1.70
2022-12-26T23:02:53.581Z,1.50
2022-12-26T23:05:22.339Z,1.25
2022-12-26T23:07:51.020Z,1.70
2022-12-26T23:10:23.391Z,1.30
2022-12-26T23:12:52.731Z,1.50
2022-12-26T23:15:23.471Z,1.40
2022-12-26T23:18:17.749Z,1.20
2022-12-26T23:21:04.108Z,1.40
2022-12-26T23:23:32.858Z,1.60
2022-12-26T23:26:02.972Z,1.30
2022-12-26T23:28:48.831Z,1.50
2022-12-26T23:31:17.137Z,2.13
2022-12-26T23:33:45.386Z,1.33
2022-12-26T23:36:13.660Z,1.23
2022-12-26T23:38:41.952Z,1.70
2022-12-26T23:41:11.561Z,1.00
2022-12-26T23:43:39.751Z,1.50
2022-12-26T23:46:10.877Z,1.20
2022-12-26T23:48:39.268Z,1.10
2022-12-26T23:51:09.100Z,1.23
2022-12-26T23:53:37.347Z,1.40
2022-12-26T23:56:08.512Z,1.40
2022-12-26T23:58:39.948Z,1.58
